Time;durP1;ratioP1;P1;durP2;ratioP2;P2;SDS_P1;SDS_P2;PMS_P1;PMS_P2;Temp;Humidity;BMP_temperature;BMP_pressure;BME280_temperature;BME280_humidity;BME280_pressure;Samples;Min_cycle;Max_cycle;Signal;HPM_P1;HPM_P2
2022/03/17 00:01:04;;;;;;;;;;;;;;;24.55;39.04;94568.63;4971500;28;7393;-63
2022/03/17 00:03:32;;;;;;;;;;;;;;;24.53;39.19;94565.63;4971039;28;10056;-63
2022/03/17 00:05:58;;;;;;;;;;;;;;;24.48;38.99;94560.88;4954338;28;7368;-63
2022/03/17 00:08:26;;;;;;;;;;;;;;;24.54;39.22;94575.38;4965011;28;7252;-63
2022/03/17 00:10:52;;;;;;;;;;;;;;;24.56;39.25;94576.38;4970091;28;9634;-63
2022/03/17 00:13:20;;;;;;;;;;;;;;;24.53;38.85;94571.88;4969280;28;7063;-63
2022/03/17 00:15:49;;;;;;;;;;;;;;;24.51;39.10;94568.88;4969036;28;7482;-63
2022/03/17 00:18:17;;;;;;;;;;;;;;;24.54;38.89;94565.13;4972313;28;7585;-63
2022/03/17 00:20:44;;;;;;;;;;;;;;;24.52;39.08;94575.88;4973464;28;8081;-63
2022/03/17 00:23:12;;;;;;;;;;;;;;;24.54;39.05;94570.63;4980786;28;9208;-63
2022/03/17 00:25:39;;;;;;;;;;;;;;;24.55;38.86;94574.13;4997397;28;8951;-62
2022/03/17 00:28:13;;;;;;;;;;;;;;;24.55;39.04;94574.91;4993444;28;9098;-63
2022/03/17 00:30:52;;;;;;;;;;;;;;;24.53;39.25;94569.13;4973887;28;7281;-63
2022/03/17 00:33:40;;;;;;;;;;;;;;;24.53;38.96;94571.13;4972325;28;8207;-63
2022/03/17 00:36:06;;;;;;;;;;;;;;;24.50;39.03;94578.38;4972992;28;9115;-63
2022/03/17 00:38:37;;;;;;;;;;;;;;;24.53;39.43;94573.88;4988156;28;7070;-62
2022/03/17 00:41:07;;;;;;;;;;;;;;;24.51;39.04;94574.38;4988015;28;8913;-63
2022/03/17 00:43:36;;;;;;;;;;;;;;;24.51;38.60;94568.88;4975037;28;10910;-63
2022/03/17 00:46:03;;;;;;;;;;;;;;;24.53;39.16;94584.88;4978180;28;7509;-63
2022/03/17 00:48:41;;;;;;;;;;;;;;;24.51;39.02;94579.13;4972572;28;8736;-63
2022/03/17 00:51:07;;;;;;;;;;;;;;;24.50;38.85;94583.88;4987502;28;9472;-63
2022/03/17 00:53:35;;;;;;;;;;;;;;;24.52;39.08;94592.38;4978966;28;8817;-63
2022/03/17 00:56:01;;;;;;;;;;;;;;;24.52;38.73;94581.38;4971120;28;7149;-63
2022/03/17 00:58:29;;;;;;;;;;;;;;;24.52;39.19;94581.38;4971715;28;7205;-63
2022/03/17 01:00:55;;;;;;;;;;;;;;;24.53;38.94;94593.13;4967465;28;9117;-63
2022/03/17 01:03:21;;;;;;;;;;;;;;;24.48;39.20;94586.38;4966819;28;9132;-63
2022/03/17 01:05:47;;;;;;;;;;;;;;;24.49;39.04;94581.63;4968775;28;9194;-63
2022/03/17 01:08:20;;;;;;;;;;;;;;;24.48;38.89;94593.88;4971790;28;7065;-63
2022/03/17 01:10:49;;;;;;;;;;;;;;;24.45;38.81;94590.13;4987748;28;7224;-63
2022/03/17 01:13:15;;;;;;;;;;;;;;;24.45;39.08;94592.09;4985284;28;9168;-63
2022/03/17 01:15:41;;;;;;;;;;;;;;;24.45;38.99;94586.59;4968510;28;9526;-63
2022/03/17 01:18:07;;;;;;;;;;;;;;;24.46;38.93;94588.88;4970461;28;7242;-63
2022/03/17 01:20:33;;;;;;;;;;;;;;;24.46;38.68;94594.38;4973141;28;9414;-63
2022/03/17 01:23:00;;;;;;;;;;;;;;;24.46;38.92;94588.88;4971522;28;10244;-63
2022/03/17 01:25:26;;;;;;;;;;;;;;;24.47;38.81;94595.09;4971860;28;7327;-63
2022/03/17 01:27:54;;;;;;;;;;;;;;;24.47;38.56;94598.63;4971195;28;8997;-63
2022/03/17 01:30:22;;;;;;;;;;;;;;;24.47;38.50;94597.84;4973225;28;8844;-62
2022/03/17 01:32:49;;;;;;;;;;;;;;;24.47;38.50;94601.38;4986109;28;9339;-63
2022/03/17 01:35:15;;;;;;;;;;;;;;;24.48;38.09;94604.88;4967929;28;9650;-63
2022/03/17 01:37:43;;;;;;;;;;;;;;;24.47;38.40;94598.63;4972821;28;7747;-63
2022/03/17 01:40:13;;;;;;;;;;;;;;;24.48;38.02;94608.38;4975335;28;7902;-63
2022/03/17 01:42:43;;;;;;;;;;;;;;;24.45;38.18;94598.38;4974407;28;9909;-63
2022/03/17 01:45:12;;;;;;;;;;;;;;;24.44;38.40;94596.88;4975341;28;7728;-63
2022/03/17 01:47:39;;;;;;;;;;;;;;;24.44;38.02;94599.63;4975836;28;7336;-62
2022/03/17 01:50:11;;;;;;;;;;;;;;;24.45;37.97;94595.63;4985923;28;9154;-62
2022/03/17 01:52:41;;;;;;;;;;;;;;;24.47;38.16;94595.09;4989506;28;7474;-62
2022/03/17 01:55:12;;;;;;;;;;;;;;;24.47;37.72;94598.63;4975497;28;7287;-63
2022/03/17 01:57:40;;;;;;;;;;;;;;;24.46;37.89;94597.13;4974811;28;9325;-63
2022/03/17 02:00:24;;;;;;;;;;;;;;;24.45;38.11;94592.09;4976388;28;9228;-62
2022/03/17 02:02:52;;;;;;;;;;;;;;;24.45;37.64;94598.38;4958723;28;9221;-62
2022/03/17 02:05:23;;;;;;;;;;;;;;;24.45;37.84;94598.38;4986984;28;7153;-62
2022/03/17 02:10:21;;;;;;;;;;;;;;;24.46;37.95;94602.63;4973236;28;9301;-63
2022/03/17 02:15:34;;;;;;;;;;;;;;;24.45;37.96;94609.38;4969375;28;7602;-62
2022/03/17 02:18:02;;;;;;;;;;;;;;;24.45;37.53;94612.13;4986932;28;9092;-62
2022/03/17 02:20:29;;;;;;;;;;;;;;;24.46;37.17;94608.13;4982456;28;9053;-62
2022/03/17 02:25:33;;;;;;;;;;;;;;;24.45;37.62;94609.38;4970895;28;9378;-62
2022/03/17 02:25:50;;;;;;;;;;;;;;;24.44;37.68;94607.88;4975179;28;7046;-62
2022/03/17 02:28:20;;;;;;;;;;;;;;;24.43;37.34;94608.34;4973795;28;9237;-62
2022/03/17 02:31:15;;;;;;;;;;;;;;;24.43;37.63;94620.09;4973761;28;9715;-62
2022/03/17 02:33:50;;;;;;;;;;;;;;;24.45;37.62;94614.88;4927069;29;9115;-62
2022/03/17 02:36:28;;;;;;;;;;;;;;;24.43;37.56;94614.59;4934839;29;9122;-62
2022/03/17 02:39:23;;;;;;;;;;;;;;;24.45;37.57;94614.09;4931971;29;8243;-62
2022/03/17 02:41:50;;;;;;;;;;;;;;;24.45;37.38;94616.84;4928787;29;7288;-62
2022/03/17 02:44:15;;;;;;;;;;;;;;;24.44;37.67;94618.13;4929026;29;9208;-62
2022/03/17 02:46:44;;;;;;;;;;;;;;;24.43;37.66;94620.09;4926691;29;7275;-62
2022/03/17 02:49:10;;;;;;;;;;;;;;;24.43;37.89;94622.09;4918221;29;9062;-59
2022/03/17 02:51:35;;;;;;;;;;;;;;;24.43;37.15;94622.84;4925423;29;9389;-62
2022/03/17 02:54:01;;;;;;;;;;;;;;;24.41;37.33;94630.84;4931121;28;8387;-62
2022/03/17 02:56:27;;;;;;;;;;;;;;;24.43;37.31;94630.34;4928218;29;9136;-62
2022/03/17 02:58:54;;;;;;;;;;;;;;;24.43;37.24;94625.59;4929750;29;9407;-63
2022/03/17 03:01:34;;;;;;;;;;;;;;;24.40;37.09;94632.09;4925482;29;7244;-63
2022/03/17 03:04:04;;;;;;;;;;;;;;;24.40;37.02;94634.09;4920152;29;9352;-62
2022/03/17 03:06:30;;;;;;;;;;;;;;;24.38;37.04;94631.84;4918010;29;8722;-62
2022/03/17 03:08:59;;;;;;;;;;;;;;;24.35;37.28;94635.59;4918986;29;9355;-62
2022/03/17 03:11:43;;;;;;;;;;;;;;;24.33;37.18;94637.34;4920174;29;9090;-62
2022/03/17 03:14:12;;;;;;;;;;;;;;;24.31;37.65;94640.59;4932874;29;7065;-62
2022/03/17 03:16:40;;;;;;;;;;;;;;;24.30;37.29;94641.81;4933327;29;9497;-62
2022/03/17 03:19:13;;;;;;;;;;;;;;;24.32;37.45;94647.56;4968617;28;7127;-62
2022/03/17 03:21:43;;;;;;;;;;;;;;;24.34;37.19;94658.06;4974933;28;7070;-62
2022/03/17 03:24:13;;;;;;;;;;;;;;;24.33;37.51;94651.84;4979710;28;9157;-62
2022/03/17 03:26:41;;;;;;;;;;;;;;;24.32;37.16;94658.56;4973595;28;7260;-62
2022/03/17 03:29:28;;;;;;;;;;;;;;;24.26;37.51;94657.81;4973900;28;9150;-62
2022/03/17 03:32:05;;;;;;;;;;;;;;;24.26;37.76;94663.31;4970317;28;8995;-63
2022/03/17 03:34:33;;;;;;;;;;;;;;;24.22;37.92;94665.53;4972731;28;7297;-62
2022/03/17 03:37:29;;;;;;;;;;;;;;;24.24;37.55;94665.81;4973192;28;9214;-62
2022/03/17 03:40:03;;;;;;;;;;;;;;;24.20;37.65;94673.53;4975474;28;7218;-62
2022/03/17 03:42:34;;;;;;;;;;;;;;;24.23;37.68;94680.03;4978643;28;8766;-62
2022/03/17 03:45:18;;;;;;;;;;;;;;;;;;4984374;28;9017;-62
2022/03/17 03:47:49;;;;;;;;;;;;;;;24.22;37.91;94678.53;4988611;28;8984;-62
2022/03/17 03:50:15;;;;;;;;;;;;;;;24.22;38.00;94678.53;4997904;28;8194;-62
2022/03/17 03:52:41;;;;;;;;;;;;;;;24.21;37.74;94677.78;4973395;28;7251;-62
2022/03/17 03:55:08;;;;;;;;;;;;;;;24.21;37.74;94680.53;4970401;28;7277;-62
2022/03/17 03:57:34;;;;;;;;;;;;;;;24.20;37.55;94676.28;4954801;28;8765;-62
2022/03/17 04:00:20;;;;;;;;;;;;;;;24.23;37.49;94683.53;4969899;28;7219;-63
2022/03/17 04:02:51;;;;;;;;;;;;;;;24.21;37.50;94688.78;4965528;28;8754;-62
2022/03/17 04:05:29;;;;;;;;;;;;;;;24.20;37.93;94692.03;4991410;28;7564;-62
2022/03/17 04:07:56;;;;;;;;;;;;;;;24.21;37.85;94693.50;4973223;28;9800;-62
2022/03/17 04:10:25;;;;;;;;;;;;;;;24.21;38.48;94702.50;4988667;28;8769;-62
2022/03/17 04:12:57;;;;;;;;;;;;;;;24.22;37.53;94695.03;4972753;28;9135;-62
2022/03/17 04:15:25;;;;;;;;;;;;;;;24.21;37.22;94699.75;4982208;28;7670;-63
2022/03/17 04:17:56;;;;;;;;;;;;;;;24.22;37.82;94706.78;4972578;28;9196;-62
2022/03/17 04:20:30;;;;;;;;;;;;;;;24.22;37.86;94706.00;4973560;28;7090;-62
2022/03/17 04:23:02;;;;;;;;;;;;;;;24.20;37.86;94705.75;4988456;28;8994;-62
2022/03/17 04:25:33;;;;;;;;;;;;;;;24.19;38.34;94702.25;4972482;28;9432;-63
2022/03/17 04:28:14;;;;;;;;;;;;;;;24.21;38.20;94702.50;4988436;28;7215;-62
2022/03/17 04:30:42;;;;;;;;;;;;;;;24.21;37.68;94702.50;4972431;28;9122;-62
2022/03/17 04:33:08;;;;;;;;;;;;;;;24.17;37.62;94696.50;4993881;28;7246;-63
2022/03/17 04:35:49;;;;;;;;;;;;;;;24.19;37.70;94698.75;4986553;28;7227;-62
2022/03/17 04:38:20;;;;;;;;;;;;;;;24.19;37.74;94699.50;4988259;28;9078;-63
2022/03/17 04:40:49;;;;;;;;;;;;;;;24.18;37.92;94702.75;4971013;28;9227;-62
2022/03/17 04:43:17;;;;;;;;;;;;;;;24.16;37.96;94700.50;4983508;28;7384;-63
2022/03/17 04:45:47;;;;;;;;;;;;;;;24.20;38.14;94703.78;4963120;28;9170;-62
2022/03/17 04:48:14;;;;;;;;;;;;;;;24.20;37.66;94719.50;4985253;28;9102;-62
2022/03/17 04:50:40;;;;;;;;;;;;;;;24.22;37.93;94708.75;4972584;28;8787;-63
2022/03/17 04:55:51;;;;;;;;;;;;;;;24.22;37.74;94722.50;4972445;28;7252;-62
2022/03/17 04:58:18;;;;;;;;;;;;;;;24.21;37.92;94718.25;4971069;28;7278;-62
2022/03/17 05:00:44;;;;;;;;;;;;;;;24.20;37.94;94720.25;4967656;28;8042;-62
2022/03/17 05:03:14;;;;;;;;;;;;;;;24.20;37.85;94720.25;4966373;28;7995;-62
2022/03/17 05:05:40;;;;;;;;;;;;;;;24.16;37.88;94716.25;4967119;28;9113;-62
2022/03/17 05:08:07;;;;;;;;;;;;;;;24.18;37.77;94719.25;4967360;28;9820;-62
2022/03/17 05:10:35;;;;;;;;;;;;;;;24.19;37.92;94723.47;4983889;28;9109;-62
2022/03/17 05:13:05;;;;;;;;;;;;;;;24.17;37.91;94726.72;4984023;28;7911;-62
2022/03/17 05:15:44;;;;;;;;;;;;;;;24.17;38.42;94723.97;4969011;28;7087;-62
2022/03/17 05:18:10;;;;;;;;;;;;;;;24.17;37.90;94731.47;4971623;28;9117;-62
2022/03/17 05:20:42;;;;;;;;;;;;;;;24.17;37.98;94731.47;4972142;28;7133;-62
2022/03/17 05:23:12;;;;;;;;;;;;;;;24.17;38.11;94739.72;4976724;28;9020;-62
2022/03/17 05:25:42;;;;;;;;;;;;;;;24.14;37.61;94732.47;4983415;28;7509;-62
2022/03/17 05:28:09;;;;;;;;;;;;;;;24.13;38.00;94734.47;4979035;28;9125;-62
2022/03/17 05:30:39;;;;;;;;;;;;;;;24.16;37.86;94746.47;4967354;28;7773;-62
2022/03/17 05:33:06;;;;;;;;;;;;;;;24.13;38.22;94739.97;4975305;28;9090;-63
2022/03/17 05:35:32;;;;;;;;;;;;;;;24.15;38.87;94751.22;4963814;28;7142;-63
2022/03/17 05:38:00;;;;;;;;;;;;;;;24.17;38.25;94750.72;4963149;28;8717;-63
2022/03/17 05:40:27;;;;;;;;;;;;;;;24.16;38.05;94757.47;4962710;28;7443;-63
2022/03/17 05:42:56;;;;;;;;;;;;;;;24.16;38.09;94758.22;4966325;28;7369;-63
2022/03/17 05:45:27;;;;;;;;;;;;;;;24.19;38.03;94759.97;4975661;28;7079;-63
2022/03/17 05:48:00;;;;;;;;;;;;;;;24.21;37.52;94759.47;4966260;28;8741;-63
2022/03/17 05:50:35;;;;;;;;;;;;;;;24.22;37.50;94759.00;4964821;28;7509;-62
2022/03/17 05:53:01;;;;;;;;;;;;;;;24.24;37.47;94759.25;4984276;28;10443;-63
2022/03/17 05:55:27;;;;;;;;;;;;;;;24.26;37.15;94767.75;4967320;28;9144;-63
2022/03/17 05:57:54;;;;;;;;;;;;;;;24.25;36.94;94771.00;4983539;28;8073;-63
2022/03/17 06:00:23;;;;;;;;;;;;;;;24.24;36.69;94770.25;4986359;28;7127;-63
2022/03/17 06:03:09;;;;;;;;;;;;;;;24.26;36.56;94781.50;4968550;28;7491;-63
2022/03/17 06:05:35;;;;;;;;;;;;;;;24.27;36.84;94788.47;4970591;28;9598;-62
2022/03/17 06:08:02;;;;;;;;;;;;;;;24.25;36.35;94782.72;4987478;28;9795;-62
2022/03/17 06:10:32;;;;;;;;;;;;;;;24.24;36.28;94786.75;4970242;28;8006;-62
2022/03/17 06:13:03;;;;;;;;;;;;;;;24.23;36.05;94782.47;4973727;28;8713;-63
2022/03/17 06:15:30;;;;;;;;;;;;;;;24.23;35.48;94787.97;4967838;28;7265;-62
2022/03/17 06:17:58;;;;;;;;;;;;;;;24.21;36.31;94786.94;4974163;28;7050;-63
2022/03/17 06:20:28;;;;;;;;;;;;;;;24.20;36.11;94791.72;4971143;28;7342;-63
2022/03/17 06:22:59;;;;;;;;;;;;;;;24.22;35.75;94799.47;4964228;28;9266;-63
2022/03/17 06:25:27;;;;;;;;;;;;;;;24.23;34.96;94795.47;4979765;28;9191;-63
2022/03/17 06:27:53;;;;;;;;;;;;;;;24.21;36.20;94800.69;4969566;28;9184;-63
2022/03/17 06:30:22;;;;;;;;;;;;;;;24.24;35.74;94805.97;4968173;28;8196;-63
2022/03/17 06:32:48;;;;;;;;;;;;;;;;;;4971648;28;9009;-63
2022/03/17 06:35:22;;;;;;;;;;;;;;;24.21;36.70;94809.69;4971871;28;7055;-63
2022/03/17 06:37:53;;;;;;;;;;;;;;;24.22;35.75;94811.22;4974051;28;10411;-63
2022/03/17 06:40:22;;;;;;;;;;;;;;;24.25;35.82;94823.97;4973500;28;9074;-63
2022/03/17 06:42:49;;;;;;;;;;;;;;;24.21;35.88;94817.94;4972529;28;9033;-63
2022/03/17 06:45:21;;;;;;;;;;;;;;;24.21;35.36;94819.94;4975657;28;9161;-62
2022/03/17 06:48:18;;;;;;;;;;;;;;;24.21;35.74;94823.44;4977014;28;7118;-63
2022/03/17 06:50:44;;;;;;;;;;;;;;;24.21;35.73;94826.19;4964486;28;7355;-63
2022/03/17 06:53:10;;;;;;;;;;;;;;;24.21;36.07;94826.19;4960108;28;9186;-62
2022/03/17 06:55:36;;;;;;;;;;;;;;;24.21;35.60;94828.19;4972181;28;7217;-63
2022/03/17 06:58:20;;;;;;;;;;;;;;;24.19;35.96;94831.44;4972009;28;9063;-63
2022/03/17 07:00:47;;;;;;;;;;;;;;;24.20;35.91;94829.44;4970033;28;9181;-63
2022/03/17 07:03:14;;;;;;;;;;;;;;;24.21;36.22;94837.19;4948300;28;7463;-63
2022/03/17 07:05:40;;;;;;;;;;;;;;;24.19;36.66;94833.41;4963031;28;9110;-63
2022/03/17 07:08:06;;;;;;;;;;;;;;;24.16;36.55;94832.44;4942721;28;6990;-63
2022/03/17 07:10:34;;;;;;;;;;;;;;;24.16;36.79;94843.41;4957070;28;9396;-63
2022/03/17 07:13:00;;;;;;;;;;;;;;;24.16;36.91;94846.16;4947063;28;9140;-62
2022/03/17 07:15:28;;;;;;;;;;;;;;;24.14;36.76;94840.38;4947849;28;7264;-62
2022/03/17 07:17:54;;;;;;;;;;;;;;;24.15;36.63;94847.41;4942657;28;7397;-63
2022/03/17 07:20:21;;;;;;;;;;;;;;;24.15;37.22;94843.88;4942672;28;9036;-63
2022/03/17 07:22:49;;;;;;;;;;;;;;;24.14;37.21;94850.66;4959319;28;9108;-62
2022/03/17 07:25:17;;;;;;;;;;;;;;;24.12;36.79;94859.34;4952128;28;9243;-63
2022/03/17 07:27:47;;;;;;;;;;;;;;;24.10;37.28;94852.88;4963506;28;7340;-63
2022/03/17 07:30:26;;;;;;;;;;;;;;;24.13;37.26;94854.63;4967584;28;9781;-62
2022/03/17 07:32:59;;;;;;;;;;;;;;;24.12;37.23;94862.09;4967501;28;7225;-63
2022/03/17 07:35:27;;;;;;;;;;;;;;;24.12;37.81;94856.59;4977815;28;9249;-62
2022/03/17 07:37:58;;;;;;;;;;;;;;;24.12;37.88;94866.88;4966149;28;7200;-62
2022/03/17 07:40:25;;;;;;;;;;;;;;;24.13;37.13;94876.59;4967115;28;9106;-62
2022/03/17 07:42:51;;;;;;;;;;;;;;;24.14;37.69;94869.88;4979768;28;9032;-62
2022/03/17 07:45:17;;;;;;;;;;;;;;;24.10;37.66;94859.09;4967131;28;9482;-62
2022/03/17 07:47:48;;;;;;;;;;;;;;;24.13;37.58;94869.13;4961799;28;7284;-62
2022/03/17 07:50:18;;;;;;;;;;;;;;;24.11;37.37;94870.84;4977149;28;6981;-63
2022/03/17 07:52:47;;;;;;;;;;;;;;;24.14;37.54;94875.38;4965598;28;7104;-63
2022/03/17 07:55:14;;;;;;;;;;;;;;;24.14;37.54;94872.63;4967002;28;9411;-63
2022/03/17 07:57:40;;;;;;;;;;;;;;;24.14;38.03;94876.09;4979000;28;9125;-63
2022/03/17 08:00:11;;;;;;;;;;;;;;;24.15;37.69;94882.38;4976475;28;7923;-63
2022/03/17 08:02:37;;;;;;;;;;;;;;;24.14;37.85;94878.84;4966770;28;9252;-63
2022/03/17 08:05:04;;;;;;;;;;;;;;;24.14;37.96;94873.34;4969651;28;8911;-63
2022/03/17 08:07:30;;;;;;;;;;;;;;;24.15;37.96;94868.63;4967275;28;9086;-62
2022/03/17 08:09:58;;;;;;;;;;;;;;;24.16;38.06;94876.41;4967623;28;7451;-62
2022/03/17 08:12:26;;;;;;;;;;;;;;;24.16;38.22;94876.41;4966823;28;9245;-62
2022/03/17 08:14:56;;;;;;;;;;;;;;;24.17;37.85;94879.88;4969464;28;7252;-62
2022/03/17 08:17:22;;;;;;;;;;;;;;;24.17;38.02;94880.63;4966942;28;9146;-63
2022/03/17 08:19:51;;;;;;;;;;;;;;;24.19;38.18;94878.16;4971642;28;6981;-63
2022/03/17 08:22:18;;;;;;;;;;;;;;;24.19;38.31;94878.16;4969090;28;9211;-63
2022/03/17 08:24:47;;;;;;;;;;;;;;;24.19;38.49;94883.66;4982123;28;7072;-62
2022/03/17 08:27:13;;;;;;;;;;;;;;;24.20;38.27;94882.41;4982554;28;7084;-62
2022/03/17 08:29:40;;;;;;;;;;;;;;;24.21;38.42;94881.16;4965270;28;7274;-62
2022/03/17 08:32:11;;;;;;;;;;;;;;;24.21;38.27;94889.41;4983670;28;9560;-63
2022/03/17 08:34:40;;;;;;;;;;;;;;;24.21;38.10;94881.16;4972179;28;7251;-63
2022/03/17 08:37:09;;;;;;;;;;;;;;;24.20;37.91;94876.91;4970110;28;8766;-63
2022/03/17 08:39:35;;;;;;;;;;;;;;;24.22;38.21;94879.16;4971426;28;7258;-63
2022/03/17 08:42:11;;;;;;;;;;;;;;;24.22;38.11;94882.69;4966892;28;9179;-63
2022/03/17 08:44:40;;;;;;;;;;;;;;;24.22;38.35;94884.66;4968074;28;9121;-63
2022/03/17 08:49:50;;;;;;;;;;;;;;;24.27;37.86;94879.19;4961576;28;9488;-63
2022/03/17 08:52:16;;;;;;;;;;;;;;;24.29;38.19;94884.97;4962830;28;8434;-63
2022/03/17 08:54:44;;;;;;;;;;;;;;;24.27;37.98;94884.69;4977111;28;8747;-63
2022/03/17 08:57:11;;;;;;;;;;;;;;;24.23;37.59;94889.66;4966396;28;9157;-63
2022/03/17 08:59:54;;;;;;;;;;;;;;;24.17;37.83;94894.38;4971719;28;7343;-62
2022/03/17 09:02:30;;;;;;;;;;;;;;;24.12;36.88;94889.59;4969809;28;9073;-63
2022/03/17 09:04:57;;;;;;;;;;;;;;;24.12;36.85;94895.09;4971345;28;7236;-63
2022/03/17 09:07:41;;;;;;;;;;;;;;;24.17;37.29;94899.88;4966595;28;9084;-62
2022/03/17 09:10:08;;;;;;;;;;;;;;;24.18;37.19;94904.16;4964915;28;8270;-62
2022/03/17 09:12:38;;;;;;;;;;;;;;;24.20;37.17;94909.16;4970431;28;9608;-63
2022/03/17 09:15:06;;;;;;;;;;;;;;;24.17;37.40;94890.88;4970419;28;7066;-62
2022/03/17 09:17:32;;;;;;;;;;;;;;;24.19;37.13;94902.88;4968467;28;9654;-62
2022/03/17 09:20:03;;;;;;;;;;;;;;;24.21;37.60;94903.16;4962697;28;9409;-62
2022/03/17 09:22:29;;;;;;;;;;;;;;;24.22;37.36;94901.16;4966958;28;7918;-62
2022/03/17 09:24:57;;;;;;;;;;;;;;;24.21;37.77;94903.16;4973898;28;7311;-62
2022/03/17 09:27:34;;;;;;;;;;;;;;;24.22;37.58;94901.91;4984768;28;9366;-62
2022/03/17 09:30:07;;;;;;;;;;;;;;;24.25;37.81;94897.44;4983427;28;7627;-62
2022/03/17 09:32:33;;;;;;;;;;;;;;;24.25;37.66;94887.19;4968909;28;9588;-62
2022/03/17 09:34:59;;;;;;;;;;;;;;;24.26;37.74;94894.19;4960606;28;7320;-63
2022/03/17 09:37:26;;;;;;;;;;;;;;;24.29;38.18;94892.47;4965547;28;9607;-62
2022/03/17 09:39:55;;;;;;;;;;;;;;;24.29;37.93;94903.47;4967382;28;9836;-63
2022/03/17 09:42:25;;;;;;;;;;;;;;;24.29;38.12;94898.72;4986054;28;7031;-62
2022/03/17 09:44:55;;;;;;;;;;;;;;;24.30;38.01;94899.47;4987263;28;7294;-62
2022/03/17 09:47:24;;;;;;;;;;;;;;;24.31;38.35;94895.47;4988626;28;7184;-62
2022/03/17 09:49:54;;;;;;;;;;;;;;;24.32;38.01;94896.97;4979298;28;8923;-62
2022/03/17 09:52:21;;;;;;;;;;;;;;;24.32;38.38;94891.47;4972931;28;9198;-62
2022/03/17 09:54:50;;;;;;;;;;;;;;;24.28;38.05;94891.72;4973583;28;9143;-62
2022/03/17 09:57:17;;;;;;;;;;;;;;;24.34;38.08;94889.75;4980982;28;9148;-63
2022/03/17 09:59:49;;;;;;;;;;;;;;;24.36;38.40;94897.53;4969656;28;8778;-62
2022/03/17 10:02:17;;;;;;;;;;;;;;;24.36;38.05;94892.75;4991465;28;9107;-62
2022/03/17 10:04:45;;;;;;;;;;;;;;;24.38;37.82;94901.25;4973766;28;9414;-62
2022/03/17 10:07:14;;;;;;;;;;;;;;;24.40;38.31;94892.53;4969826;28;7193;-62
2022/03/17 10:09:43;;;;;;;;;;;;;;;24.42;38.30;94906.56;4970038;28;9350;-62
2022/03/17 10:12:13;;;;;;;;;;;;;;;24.41;38.10;94897.53;4982384;28;9421;-62
2022/03/17 10:14:42;;;;;;;;;;;;;;;24.42;38.53;94896.31;4971479;28;9180;-62
2022/03/17 10:17:34;;;;;;;;;;;;;;;24.44;38.89;94896.56;4970970;28;9105;-62
2022/03/17 10:20:22;;;;;;;;;;;;;;;24.44;38.46;94891.06;4970925;28;7685;-62
2022/03/17 10:22:52;;;;;;;;;;;;;;;24.46;38.26;94890.56;4985137;28;7967;-62
2022/03/17 10:25:29;;;;;;;;;;;;;;;24.45;38.53;94889.06;4972576;28;9164;-62
2022/03/17 10:28:07;;;;;;;;;;;;;;;24.47;38.52;94892.06;4973639;28;9457;-62
2022/03/17 10:30:35;;;;;;;;;;;;;;;24.48;38.54;94883.34;4971841;28;8795;-62
2022/03/17 10:33:22;;;;;;;;;;;;;;;24.47;38.58;94887.31;4973814;28;7050;-62
2022/03/17 10:35:52;;;;;;;;;;;;;;;24.49;38.66;94900.59;4974875;28;9280;-63
2022/03/17 10:38:22;;;;;;;;;;;;;;;24.49;39.08;94898.59;4981367;28;7321;-62
2022/03/17 10:41:12;;;;;;;;;;;;;;;24.51;38.32;94896.09;4983243;28;7290;-62
2022/03/17 10:43:47;;;;;;;;;;;;;;;24.52;38.28;94905.09;4970593;28;7512;-62
2022/03/17 10:46:29;;;;;;;;;;;;;;;24.54;39.12;94900.63;4985580;28;8644;-62
2022/03/17 10:49:00;;;;;;;;;;;;;;;24.53;38.64;94901.84;4971664;28;9020;-62
2022/03/17 10:51:40;;;;;;;;;;;;;;;24.54;38.76;94905.34;4971541;28;7530;-62
2022/03/17 10:54:18;;;;;;;;;;;;;;;24.54;38.67;94908.09;4971364;28;7266;-62
2022/03/17 10:57:12;;;;;;;;;;;;;;;24.56;38.88;94908.38;4967801;28;7957;-62
2022/03/17 10:59:42;;;;;;;;;;;;;;;24.57;38.68;94912.63;4979808;28;7123;-62
2022/03/17 11:02:12;;;;;;;;;;;;;;;24.57;38.79;94918.13;4987858;28;9584;-62
2022/03/17 11:04:41;;;;;;;;;;;;;;;24.57;38.76;94913.41;4969969;28;9405;-62
2022/03/17 11:07:13;;;;;;;;;;;;;;;24.57;39.00;94909.88;4983381;28;8969;-62
2022/03/17 11:09:42;;;;;;;;;;;;;;;24.56;38.99;94909.13;4973014;28;7636;-62
2022/03/17 11:12:12;;;;;;;;;;;;;;;24.56;39.44;94908.38;4966656;28;8980;-62
2022/03/17 11:14:44;;;;;;;;;;;;;;;24.56;38.90;94905.63;4984376;28;9085;-62
2022/03/17 11:17:16;;;;;;;;;;;;;;;24.58;38.57;94919.63;4968190;28;9129;-62
2022/03/17 11:19:48;;;;;;;;;;;;;;;24.58;38.79;94909.38;4966828;28;7307;-62
2022/03/17 11:22:22;;;;;;;;;;;;;;;24.59;38.79;94910.91;4971410;28;9429;-62
2022/03/17 11:25:28;;;;;;;;;;;;;;;24.59;38.60;94916.41;4972482;28;7256;-62
2022/03/17 11:28:04;;;;;;;;;;;;;;;24.60;38.91;94912.41;4987834;28;9275;-62
2022/03/17 11:30:47;;;;;;;;;;;;;;;24.60;38.73;94912.41;4970628;28;7952;-62
2022/03/17 11:33:27;;;;;;;;;;;;;;;24.62;38.97;94904.41;4985999;28;7512;-62
2022/03/17 11:35:59;;;;;;;;;;;;;;;24.62;38.99;94907.16;4971969;28;7293;-62
2022/03/17 11:39:02;;;;;;;;;;;;;;;24.62;38.89;94904.41;4966661;28;9676;-62
2022/03/17 11:41:33;;;;;;;;;;;;;;;24.63;38.61;94910.66;4970546;28;9172;-62
2022/03/17 11:44:03;;;;;;;;;;;;;;;24.64;38.95;94909.44;4963940;28;9481;-62
2022/03/17 11:46:46;;;;;;;;;;;;;;;24.68;38.88;94912.69;4988229;28;8770;-62
2022/03/17 11:49:27;;;;;;;;;;;;;;;24.68;38.68;94910.69;4970323;28;9200;-62
2022/03/17 11:51:56;;;;;;;;;;;;;;;24.67;38.59;94909.19;4964500;28;7876;-62
2022/03/17 11:54:23;;;;;;;;;;;;;;;24.64;38.71;94912.91;4970097;28;7718;-63
2022/03/17 11:56:56;;;;;;;;;;;;;;;24.64;38.57;94909.44;4978517;28;8705;-62
2022/03/17 11:59:30;;;;;;;;;;;;;;;24.68;38.75;94915.47;4971319;28;7316;-62
2022/03/17 12:02:09;;;;;;;;;;;;;;;24.68;38.39;94918.22;4974237;28;9510;-62
2022/03/17 12:04:37;;;;;;;;;;;;;;;24.68;38.72;94918.94;4966197;28;7486;-62
2022/03/17 12:07:13;;;;;;;;;;;;;;;24.69;38.66;94914.97;4969562;28;7154;-62
2022/03/17 12:09:43;;;;;;;;;;;;;;;24.63;38.45;94911.44;4962951;28;8859;-63
2022/03/17 12:12:25;;;;;;;;;;;;;;;24.69;39.02;94916.94;4967304;28;7619;-62
2022/03/17 12:14:55;;;;;;;;;;;;;;;24.82;39.00;94909.03;4968954;28;8501;-62
2022/03/17 12:17:26;;;;;;;;;;;;;;;24.99;38.31;94911.88;4963247;28;9087;-62
2022/03/17 12:20:19;;;;;;;;;;;;;;;25.06;37.11;94912.16;4965149;28;9745;-63
2022/03/17 12:22:49;;;;;;;;;;;;;;;25.09;38.08;94907.66;4970952;28;7242;-63
2022/03/17 12:25:24;;;;;;;;;;;;;;;25.08;37.95;94917.91;4976266;28;9408;-63
2022/03/17 12:27:56;;;;;;;;;;;;;;;25.07;37.74;94916.41;4967737;28;7283;-62
2022/03/17 12:30:25;;;;;;;;;;;;;;;25.05;37.72;94913.41;4982939;28;9085;-62
2022/03/17 12:32:54;;;;;;;;;;;;;;;25.02;38.49;94910.88;4966373;28;7076;-62
2022/03/17 12:35:24;;;;;;;;;;;;;;;25.02;38.31;94913.63;4967230;28;7277;-62
2022/03/17 12:37:59;;;;;;;;;;;;;;;24.99;38.64;94912.63;4967545;28;8793;-62
2022/03/17 12:40:44;;;;;;;;;;;;;;;24.98;38.44;94910.38;4988857;28;7091;-62
2022/03/17 12:43:21;;;;;;;;;;;;;;;24.96;38.20;94907.34;4971336;28;9259;-62
2022/03/17 12:45:56;;;;;;;;;;;;;;;24.96;38.80;94907.34;4988099;28;8857;-62
2022/03/17 12:48:22;;;;;;;;;;;;;;;24.93;38.53;94906.34;4970177;28;9023;-61
2022/03/17 12:50:48;;;;;;;;;;;;;;;24.93;38.95;94905.59;4971436;28;8967;-61
2022/03/17 12:53:14;;;;;;;;;;;;;;;24.95;39.15;94908.59;4968655;28;9471;-62
2022/03/17 12:55:40;;;;;;;;;;;;;;;24.94;38.70;94902.34;4975293;28;7185;-61
2022/03/17 12:58:07;;;;;;;;;;;;;;;24.95;39.39;94905.84;4965099;28;9164;-62
2022/03/17 13:00:42;;;;;;;;;;;;;;;24.96;38.79;94901.84;4965898;28;9368;-62
2022/03/17 13:03:17;;;;;;;;;;;;;;;24.93;38.62;94900.84;4967037;28;8803;-62
2022/03/17 13:08:39;;;;;;;;;;;;;;;24.93;38.54;94900.06;4968853;28;9829;-63
2022/03/17 13:14:21;;;;;;;;;;;;;;;24.90;38.96;94898.34;4974752;28;7971;-63
2022/03/17 13:17:07;;;;;;;;;;;;;;;24.90;39.22;94895.56;4971484;28;7231;-63
2022/03/17 13:19:51;;;;;;;;;;;;;;;24.92;39.05;94890.34;4979050;28;7010;-63
2022/03/17 13:22:32;;;;;;;;;;;;;;;24.92;38.92;94895.84;4971441;28;9388;-63
2022/03/17 13:25:08;;;;;;;;;;;;;;;24.90;38.77;94896.34;4986635;28;9463;-63
2022/03/17 13:27:34;;;;;;;;;;;;;;;24.88;38.76;94893.31;4962483;28;7257;-63
2022/03/17 13:30:07;;;;;;;;;;;;;;;24.87;38.15;94897.31;4980135;28;9407;-62
2022/03/17 13:32:34;;;;;;;;;;;;;;;24.90;38.61;94892.81;4967295;28;7100;-62
2022/03/17 13:35:04;;;;;;;;;;;;;;;24.91;38.25;94888.81;4964319;28;7182;-63